createdAt,value
2023-01-29T00:02:14.802Z,5.57
2023-01-29T00:04:41.694Z,6.07
2023-01-29T00:07:08.648Z,5.27
2023-01-29T00:09:35.840Z,4.93
2023-01-29T00:12:02.837Z,3.90
2023-01-29T00:14:29.727Z,5.90
2023-01-29T00:16:56.789Z,5.13
2023-01-29T00:19:23.680Z,5.60
2023-01-29T00:21:50.549Z,6.27
2023-01-29T00:24:17.484Z,5.90
2023-01-29T00:26:44.439Z,6.10
2023-01-29T00:29:11.570Z,5.50
2023-01-29T00:31:38.557Z,6.20
2023-01-29T00:34:05.508Z,5.10
2023-01-29T00:36:32.494Z,4.57
2023-01-29T00:39:03.464Z,5.00
2023-01-29T00:41:51.630Z,4.90
2023-01-29T00:44:37.474Z,5.57
2023-01-29T00:47:25.406Z,4.60
2023-01-29T00:49:52.686Z,4.73
2023-01-29T00:52:25.376Z,5.07
2023-01-29T00:54:57.312Z,5.53
2023-01-29T00:57:26.935Z,3.73
2023-01-29T00:59:54.039Z,4.93
2023-01-29T01:02:40.349Z,4.40
2023-01-29T01:05:17.738Z,4.20
2023-01-29T01:07:51.452Z,4.57
2023-01-29T01:10:28.979Z,4.57
2023-01-29T01:13:03.057Z,4.20
2023-01-29T01:15:35.701Z,4.37
2023-01-29T01:18:03.487Z,4.43
2023-01-29T01:20:33.920Z,4.80
2023-01-29T01:23:00.943Z,5.10
2023-01-29T01:25:28.336Z,6.63
2023-01-29T01:27:57.076Z,4.00
2023-01-29T01:30:25.872Z,4.50
2023-01-29T01:32:53.148Z,4.53
2023-01-29T01:35:20.182Z,4.07
2023-01-29T01:37:47.044Z,4.83
2023-01-29T01:40:21.246Z,4.90
2023-01-29T01:42:54.192Z,5.10
2023-01-29T01:45:36.338Z,4.07
2023-01-29T01:48:16.480Z,4.50
2023-01-29T01:50:44.773Z,4.60
2023-01-29T01:53:15.591Z,4.40
2023-01-29T01:55:51.185Z,4.73
2023-01-29T01:58:30.622Z,5.20
2023-01-29T02:00:57.911Z,5.50
2023-01-29T02:03:45.488Z,4.77
2023-01-29T02:06:31.234Z,4.60
2023-01-29T02:09:37.018Z,4.53
2023-01-29T02:12:16.248Z,4.90
2023-01-29T02:14:44.439Z,5.50
2023-01-29T02:17:18.043Z,4.63
2023-01-29T02:19:57.453Z,4.73
2023-01-29T02:22:28.280Z,4.00
2023-01-29T02:25:19.129Z,4.97
2023-01-29T02:27:49.132Z,5.40
2023-01-29T02:30:40.647Z,5.03
2023-01-29T02:33:26.144Z,4.73
2023-01-29T02:36:25.051Z,5.67
2023-01-29T02:39:18.478Z,4.87
2023-01-29T02:42:27.381Z,5.90
2023-01-29T02:45:19.508Z,5.63
2023-01-29T02:48:01.279Z,5.90
2023-01-29T02:50:54.300Z,6.13
2023-01-29T02:53:41.354Z,6.13
2023-01-29T02:56:17.829Z,6.30
2023-01-29T02:59:18.015Z,8.10
2023-01-29T03:02:13.880Z,8.63
2023-01-29T03:04:49.252Z,9.47
2023-01-29T03:07:42.599Z,7.80
2023-01-29T03:10:33.390Z,10.10
2023-01-29T03:13:57.214Z,11.13
2023-01-29T03:16:42.977Z,10.77
2023-01-29T03:19:16.686Z,11.00
2023-01-29T03:21:59.322Z,10.70
2023-01-29T03:25:06.637Z,10.70
2023-01-29T03:28:02.631Z,10.00
2023-01-29T03:30:52.034Z,11.40
2023-01-29T03:33:24.097Z,10.50
2023-01-29T03:36:17.555Z,10.63
2023-01-29T03:38:45.454Z,10.07
2023-01-29T03:41:31.428Z,11.23
2023-01-29T03:44:15.065Z,10.67
2023-01-29T03:47:15.000Z,11.03
2023-01-29T03:50:31.510Z,13.10
2023-01-29T03:53:16.262Z,10.70
2023-01-29T03:56:08.666Z,10.20
2023-01-29T03:59:20.135Z,10.33
2023-01-29T04:02:14.014Z,10.50
2023-01-29T04:04:45.359Z,10.30
2023-01-29T04:07:24.559Z,11.07
2023-01-29T04:10:00.624Z,11.97
2023-01-29T04:12:35.211Z,10.30
2023-01-29T04:15:06.157Z,11.60
2023-01-29T04:17:39.935Z,10.77
2023-01-29T04:20:08.200Z,11.20
2023-01-29T04:22:38.351Z,11.60
2023-01-29T04:25:16.137Z,10.60
2023-01-29T04:28:06.072Z,9.77
2023-01-29T04:31:01.225Z,10.50
2023-01-29T04:33:35.662Z,10.20
2023-01-29T04:36:26.924Z,10.70
2023-01-29T04:39:22.551Z,11.10
2023-01-29T04:42:07.446Z,11.03
2023-01-29T04:44:49.921Z,10.83
2023-01-29T04:47:49.290Z,13.10
2023-01-29T04:50:29.174Z,10.27
2023-01-29T04:53:01.890Z,11.23
2023-01-29T04:55:47.549Z,9.20
2023-01-29T04:58:41.420Z,10.50
2023-01-29T05:01:13.992Z,11.47
2023-01-29T05:03:45.403Z,10.50
2023-01-29T05:06:13.355Z,9.83
2023-01-29T05:08:41.220Z,10.40
2023-01-29T05:11:09.075Z,10.63
2023-01-29T05:13:40.317Z,10.50
2023-01-29T05:16:22.790Z,10.33
2023-01-29T05:18:50.387Z,10.03
2023-01-29T05:21:17.710Z,11.37
2023-01-29T05:23:53.261Z,11.13
2023-01-29T05:26:40.051Z,10.30
2023-01-29T05:29:07.423Z,9.40
2023-01-29T05:31:34.819Z,10.10
2023-01-29T05:34:01.709Z,9.90
2023-01-29T05:36:29.146Z,11.00
2023-01-29T05:38:55.999Z,12.00
2023-01-29T05:41:22.903Z,10.93
2023-01-29T05:43:49.822Z,9.63
2023-01-29T05:46:17.102Z,9.77
2023-01-29T05:48:44.069Z,11.07
2023-01-29T05:51:11.405Z,14.70
2023-01-29T05:53:38.782Z,10.80
2023-01-29T05:56:06.346Z,10.53
2023-01-29T05:58:34.684Z,11.13
2023-01-29T06:01:18.425Z,11.37
2023-01-29T06:03:45.947Z,10.10
2023-01-29T06:06:13.620Z,11.27
2023-01-29T06:08:41.020Z,11.33
2023-01-29T06:11:10.326Z,11.80
2023-01-29T06:13:37.483Z,10.77
2023-01-29T06:16:09.933Z,11.80
2023-01-29T06:18:38.397Z,9.33
2023-01-29T06:21:07.540Z,10.93
2023-01-29T06:23:34.893Z,11.73
2023-01-29T06:26:08.649Z,10.67
2023-01-29T06:28:36.130Z,8.87
2023-01-29T06:31:22.036Z,11.33
2023-01-29T06:33:50.879Z,10.63
2023-01-29T06:36:18.125Z,11.93
2023-01-29T06:38:45.479Z,10.47
2023-01-29T06:41:14.778Z,11.37
2023-01-29T06:43:44.994Z,13.07
2023-01-29T06:46:12.332Z,11.63
2023-01-29T06:48:39.625Z,12.17
2023-01-29T06:51:09.331Z,13.90
2023-01-29T06:53:37.476Z,11.93
2023-01-29T06:56:06.241Z,11.83
2023-01-29T06:58:36.171Z,12.67
2023-01-29T07:01:17.579Z,14.17
2023-01-29T07:03:56.415Z,12.63
2023-01-29T07:06:33.811Z,15.07
2023-01-29T07:09:00.779Z,13.30
2023-01-29T07:11:28.034Z,12.70
2023-01-29T07:13:55.447Z,11.97
2023-01-29T07:16:23.438Z,13.77
2023-01-29T07:18:51.197Z,12.97
2023-01-29T07:21:18.128Z,14.27
2023-01-29T07:23:45.570Z,14.37
2023-01-29T07:26:13.000Z,12.20
2023-01-29T07:28:40.913Z,11.67
2023-01-29T07:31:09.160Z,15.40
2023-01-29T07:33:36.514Z,11.63
2023-01-29T07:36:09.018Z,13.30
2023-01-29T07:38:36.520Z,13.70
2023-01-29T07:41:03.968Z,12.27
2023-01-29T07:43:31.648Z,13.37
2023-01-29T07:46:03.822Z,13.60
2023-01-29T07:48:30.760Z,11.83
2023-01-29T07:50:58.880Z,12.37
2023-01-29T07:53:27.674Z,12.93
2023-01-29T07:55:54.690Z,14.43
2023-01-29T07:58:21.998Z,12.60
2023-01-29T08:00:49.038Z,10.67
2023-01-29T08:03:20.215Z,21.27
2023-01-29T08:05:47.832Z,12.87
2023-01-29T08:08:15.384Z,11.30
2023-01-29T08:10:42.585Z,11.00
2023-01-29T08:13:09.681Z,13.03
2023-01-29T08:15:39.107Z,11.67
2023-01-29T08:18:07.028Z,13.00
2023-01-29T08:20:33.896Z,11.73
2023-01-29T08:23:08.084Z,12.00
2023-01-29T08:25:36.364Z,11.90
2023-01-29T08:28:04.288Z,12.40
2023-01-29T08:30:34.018Z,11.67
2023-01-29T08:33:01.525Z,10.67
2023-01-29T08:35:28.475Z,11.80
2023-01-29T08:38:01.311Z,12.20
2023-01-29T08:40:33.813Z,11.70
2023-01-29T08:43:07.784Z,11.13
2023-01-29T08:45:38.721Z,9.40
2023-01-29T08:48:06.265Z,10.50
2023-01-29T08:50:34.928Z,11.07
2023-01-29T08:53:04.501Z,10.83
2023-01-29T08:55:31.378Z,10.57
2023-01-29T08:57:58.352Z,10.40
2023-01-29T09:00:25.383Z,10.03
2023-01-29T09:02:52.489Z,11.10
2023-01-29T09:05:19.815Z,9.57
2023-01-29T09:07:46.937Z,10.43
2023-01-29T09:10:13.865Z,9.80
2023-01-29T09:12:40.820Z,10.17
2023-01-29T09:15:08.672Z,9.13
2023-01-29T09:17:35.752Z,9.73
2023-01-29T09:20:02.803Z,9.60
2023-01-29T09:22:29.690Z,9.80
2023-01-29T09:24:56.638Z,12.67
2023-01-29T09:27:24.354Z,9.80
2023-01-29T09:29:51.218Z,10.87
2023-01-29T09:32:37.757Z,9.57
2023-01-29T09:35:05.964Z,10.23
2023-01-29T09:37:32.931Z,9.83
2023-01-29T09:39:59.845Z,11.13
2023-01-29T09:42:49.582Z,19.60
2023-01-29T09:45:24.755Z,14.80
2023-01-29T09:47:52.518Z,11.60
2023-01-29T09:50:37.503Z,10.60
2023-01-29T09:53:51.134Z,10.03
2023-01-29T09:56:21.932Z,13.87
2023-01-29T09:58:48.907Z,10.67
2023-01-29T10:01:54.142Z,9.97
2023-01-29T10:04:39.141Z,8.90
2023-01-29T10:07:17.830Z,9.73
2023-01-29T10:10:19.177Z,9.00
2023-01-29T10:13:22.013Z,10.50
2023-01-29T10:16:41.564Z,9.20
2023-01-29T10:19:18.342Z,6.63
2023-01-29T10:22:24.370Z,6.10
2023-01-29T10:25:06.020Z,6.43
2023-01-29T10:27:38.480Z,5.50
2023-01-29T10:30:41.455Z,5.30
2023-01-29T10:33:18.750Z,5.40
2023-01-29T10:35:55.944Z,6.60
2023-01-29T10:38:38.436Z,6.37
2023-01-29T10:41:11.410Z,5.47
2023-01-29T10:43:53.139Z,6.63
2023-01-29T10:47:13.028Z,5.90
2023-01-29T10:50:19.564Z,6.40
2023-01-29T10:52:58.076Z,6.30
2023-01-29T10:55:53.207Z,6.40
2023-01-29T10:58:31.961Z,5.90
2023-01-29T11:00:59.168Z,5.97
2023-01-29T11:03:29.023Z,6.20
2023-01-29T11:06:11.822Z,5.60
2023-01-29T11:09:08.941Z,5.73
2023-01-29T11:11:46.535Z,6.03
2023-01-29T11:14:23.099Z,5.20
2023-01-29T11:16:50.186Z,6.90
2023-01-29T11:19:17.205Z,6.53
2023-01-29T11:22:01.010Z,6.43
2023-01-29T11:24:29.243Z,6.70
2023-01-29T11:26:59.532Z,6.60
2023-01-29T11:29:44.426Z,7.10
2023-01-29T11:32:26.432Z,5.30
2023-01-29T11:35:04.870Z,6.50
2023-01-29T11:37:44.872Z,5.87
2023-01-29T11:40:23.878Z,7.07
2023-01-29T11:42:53.948Z,6.67
2023-01-29T11:45:23.410Z,6.47
2023-01-29T11:47:56.105Z,6.37
2023-01-29T11:50:29.923Z,7.83
2023-01-29T11:52:59.034Z,7.53
2023-01-29T11:55:41.015Z,7.90
2023-01-29T11:58:29.906Z,7.07
2023-01-29T12:00:58.392Z,7.40
2023-01-29T12:03:41.501Z,6.50
2023-01-29T12:06:24.373Z,7.43
2023-01-29T12:09:00.444Z,7.33
2023-01-29T12:11:34.967Z,7.73
2023-01-29T12:14:06.388Z,7.80
2023-01-29T12:17:14.603Z,7.37
2023-01-29T12:19:55.406Z,6.80
2023-01-29T12:22:43.248Z,7.50
2023-01-29T12:25:24.534Z,6.80
2023-01-29T12:28:09.470Z,8.77
2023-01-29T12:31:08.848Z,7.20
2023-01-29T12:34:29.978Z,9.50
2023-01-29T12:37:25.933Z,15.93
2023-01-29T12:39:52.948Z,7.20
2023-01-29T12:42:48.831Z,7.17
2023-01-29T12:45:20.103Z,8.30
2023-01-29T12:47:55.559Z,7.20
2023-01-29T12:50:37.719Z,6.87
2023-01-29T12:53:35.395Z,7.40
2023-01-29T12:56:18.762Z,7.17
2023-01-29T12:58:53.045Z,7.07
2023-01-29T13:01:49.690Z,6.93
2023-01-29T13:04:51.318Z,6.37
2023-01-29T13:07:27.273Z,7.50
2023-01-29T13:10:04.606Z,7.10
2023-01-29T13:13:15.911Z,7.20
2023-01-29T13:15:44.350Z,6.50
2023-01-29T13:18:35.995Z,6.70
2023-01-29T13:21:04.676Z,6.60
2023-01-29T13:23:52.298Z,7.57
2023-01-29T13:26:23.665Z,15.47
2023-01-29T13:28:56.301Z,12.90
2023-01-29T13:31:42.478Z,11.83
2023-01-29T13:34:33.437Z,6.80
2023-01-29T13:37:20.123Z,7.50
2023-01-29T13:39:52.611Z,6.83
2023-01-29T13:42:33.223Z,6.60
2023-01-29T13:45:05.301Z,7.03
2023-01-29T13:47:35.567Z,6.40
2023-01-29T13:50:49.737Z,8.10
2023-01-29T13:53:29.807Z,6.47
2023-01-29T13:56:34.772Z,7.23
2023-01-29T13:59:05.436Z,6.53
2023-01-29T14:01:47.574Z,8.80
2023-01-29T14:04:26.721Z,7.70
2023-01-29T14:06:55.889Z,8.10
2023-01-29T14:09:38.016Z,7.93
2023-01-29T14:12:26.070Z,7.90
2023-01-29T14:14:56.691Z,7.17
2023-01-29T14:17:26.279Z,6.67
2023-01-29T14:20:04.593Z,6.90
2023-01-29T14:22:33.873Z,7.20
2023-01-29T14:25:05.194Z,7.00
2023-01-29T14:27:32.984Z,7.50
2023-01-29T14:30:06.292Z,6.90
2023-01-29T14:32:33.959Z,7.60
2023-01-29T14:35:10.644Z,6.70
2023-01-29T14:37:41.122Z,7.37
2023-01-29T14:40:10.747Z,7.70
2023-01-29T14:43:00.106Z,7.43
2023-01-29T14:45:36.627Z,8.03
2023-01-29T14:48:38.632Z,7.60
2023-01-29T14:51:15.624Z,7.63
2023-01-29T14:54:02.773Z,34.70
2023-01-29T14:56:42.325Z,16.00
2023-01-29T14:59:34.700Z,7.80
2023-01-29T15:02:17.063Z,7.20
2023-01-29T15:04:54.096Z,8.20
2023-01-29T15:07:29.738Z,7.10
2023-01-29T15:10:22.029Z,7.80
2023-01-29T15:12:59.884Z,7.77
2023-01-29T15:15:36.850Z,7.73
2023-01-29T15:18:08.937Z,7.80
2023-01-29T15:20:39.881Z,7.33
2023-01-29T15:23:32.109Z,7.60
2023-01-29T15:26:03.475Z,8.73
2023-01-29T15:28:32.975Z,7.80
2023-01-29T15:31:04.459Z,7.90
2023-01-29T15:33:33.871Z,6.83
2023-01-29T15:36:07.720Z,7.17
2023-01-29T15:38:35.879Z,8.17
2023-01-29T15:41:24.391Z,8.40
2023-01-29T15:43:57.932Z,8.57
2023-01-29T15:46:33.954Z,8.00
2023-01-29T15:49:07.252Z,9.03
2023-01-29T15:51:34.466Z,13.03
2023-01-29T15:54:10.412Z,12.23
2023-01-29T15:56:47.203Z,14.20
2023-01-29T15:59:25.000Z,14.93
2023-01-29T16:01:53.135Z,13.97
2023-01-29T16:04:38.294Z,14.83
2023-01-29T16:07:05.299Z,14.20
2023-01-29T16:09:32.280Z,14.90
2023-01-29T16:11:59.843Z,14.87
2023-01-29T16:14:28.784Z,13.57
2023-01-29T16:16:55.774Z,12.50
2023-01-29T16:19:29.042Z,10.70
2023-01-29T16:22:03.901Z,12.00
2023-01-29T16:24:35.083Z,11.63
2023-01-29T16:27:12.023Z,12.13
2023-01-29T16:29:39.165Z,10.33
2023-01-29T16:32:06.813Z,11.20
2023-01-29T16:34:48.227Z,11.83
2023-01-29T16:37:36.297Z,11.43
2023-01-29T16:40:21.692Z,11.60
2023-01-29T16:42:48.642Z,12.20
2023-01-29T16:45:29.391Z,9.40
2023-01-29T16:48:27.895Z,10.43
2023-01-29T16:51:20.758Z,10.23
2023-01-29T16:54:02.302Z,10.80
2023-01-29T16:56:32.548Z,9.87
2023-01-29T16:59:01.510Z,13.40
2023-01-29T17:01:30.107Z,15.10
2023-01-29T17:04:01.365Z,12.57
2023-01-29T17:06:31.828Z,12.03
2023-01-29T17:08:59.751Z,13.03
2023-01-29T17:11:33.323Z,12.70
2023-01-29T17:14:00.996Z,21.07
2023-01-29T17:16:37.534Z,37.13
2023-01-29T17:19:20.853Z,24.33
2023-01-29T17:21:48.026Z,19.03
2023-01-29T17:24:14.989Z,18.27
2023-01-29T17:26:42.464Z,17.67
2023-01-29T17:29:15.625Z,18.37
2023-01-29T17:31:43.521Z,18.10
2023-01-29T17:34:15.499Z,18.00
2023-01-29T17:36:46.018Z,18.27
2023-01-29T17:39:21.380Z,15.53
2023-01-29T17:41:52.281Z,15.70
2023-01-29T17:44:19.737Z,17.10
2023-01-29T17:46:47.532Z,17.83
2023-01-29T17:49:23.696Z,17.77
2023-01-29T17:51:52.154Z,15.90
2023-01-29T17:54:20.287Z,15.87
2023-01-29T17:56:48.166Z,15.93
2023-01-29T17:59:18.290Z,14.33
2023-01-29T18:01:46.617Z,15.90
2023-01-29T18:04:13.813Z,15.40
2023-01-29T18:06:42.819Z,15.00
2023-01-29T18:09:17.055Z,13.50
2023-01-29T18:11:43.939Z,12.33
2023-01-29T18:14:13.910Z,12.10
2023-01-29T18:16:43.620Z,13.00
2023-01-29T18:19:22.752Z,12.90
2023-01-29T18:21:50.639Z,12.33
2023-01-29T18:24:17.817Z,13.23
2023-01-29T18:26:44.839Z,12.90
2023-01-29T18:29:11.813Z,13.63
2023-01-29T18:31:39.256Z,12.60
2023-01-29T18:34:06.472Z,12.20
2023-01-29T18:36:33.561Z,13.93
2023-01-29T18:39:00.475Z,12.50
2023-01-29T18:41:27.412Z,13.10
2023-01-29T18:43:54.364Z,12.90
2023-01-29T18:46:22.366Z,12.73
2023-01-29T18:48:50.662Z,11.87
2023-01-29T18:51:17.523Z,10.67
2023-01-29T18:53:46.517Z,10.93
2023-01-29T18:56:14.185Z,10.03
2023-01-29T18:58:41.122Z,11.63
2023-01-29T19:01:11.799Z,10.77
2023-01-29T19:03:40.936Z,11.40
2023-01-29T19:06:10.879Z,10.77
2023-01-29T19:08:38.782Z,11.27
2023-01-29T19:11:08.167Z,12.50
2023-01-29T19:13:37.047Z,13.87
2023-01-29T19:16:09.107Z,12.73
2023-01-29T19:18:36.832Z,12.43
2023-01-29T19:21:13.030Z,13.77
2023-01-29T19:23:41.429Z,14.17
2023-01-29T19:26:08.772Z,12.07
2023-01-29T19:28:36.231Z,15.63
2023-01-29T19:31:03.832Z,14.70
2023-01-29T19:33:30.852Z,15.77
2023-01-29T19:36:00.391Z,13.83
2023-01-29T19:38:28.481Z,15.07
2023-01-29T19:40:55.510Z,14.77
2023-01-29T19:43:22.547Z,13.70
2023-01-29T19:45:50.991Z,15.50
2023-01-29T19:48:21.824Z,14.53
2023-01-29T19:51:01.137Z,14.40
2023-01-29T19:53:29.348Z,13.40
2023-01-29T19:56:05.057Z,14.07
2023-01-29T19:58:32.991Z,13.57
2023-01-29T20:01:04.302Z,15.00
2023-01-29T20:03:31.578Z,15.50
2023-01-29T20:06:04.338Z,15.83
2023-01-29T20:08:32.171Z,15.53
2023-01-29T20:10:59.181Z,14.70
2023-01-29T20:13:26.290Z,15.13
2023-01-29T20:15:53.585Z,16.30
2023-01-29T20:18:20.631Z,14.80
2023-01-29T20:20:50.190Z,14.13
2023-01-29T20:23:35.242Z,14.93
2023-01-29T20:26:04.319Z,12.73
2023-01-29T20:28:31.397Z,13.63
2023-01-29T20:30:58.994Z,14.37
2023-01-29T20:33:26.513Z,14.27
2023-01-29T20:36:00.234Z,12.17
2023-01-29T20:38:30.504Z,12.40
2023-01-29T20:41:15.077Z,13.63
2023-01-29T20:43:42.864Z,13.63
2023-01-29T20:46:12.373Z,15.10
2023-01-29T20:48:40.020Z,14.93
2023-01-29T20:51:16.527Z,14.90
2023-01-29T20:53:46.048Z,15.80
2023-01-29T20:56:15.667Z,16.43
2023-01-29T20:58:42.992Z,16.57
2023-01-29T21:01:12.571Z,17.10
2023-01-29T21:03:40.316Z,17.27
2023-01-29T21:06:11.686Z,16.87
2023-01-29T21:08:39.782Z,17.13
2023-01-29T21:11:09.147Z,15.80
2023-01-29T21:13:36.676Z,15.30
2023-01-29T21:16:04.857Z,15.70
2023-01-29T21:18:32.297Z,16.93
2023-01-29T21:20:59.596Z,16.60
2023-01-29T21:23:27.184Z,16.83
2023-01-29T21:25:54.576Z,17.87
2023-01-29T21:28:21.713Z,17.00
2023-01-29T21:30:48.900Z,16.97
2023-01-29T21:33:15.824Z,16.13
2023-01-29T21:35:42.916Z,15.90
2023-01-29T21:38:10.217Z,16.50
2023-01-29T21:40:37.085Z,16.47
2023-01-29T21:43:13.240Z,16.00
2023-01-29T21:45:41.111Z,13.93
2023-01-29T21:48:11.605Z,14.27
2023-01-29T21:50:38.957Z,14.30
2023-01-29T21:53:06.742Z,15.77
2023-01-29T21:55:33.904Z,15.10
2023-01-29T21:58:01.596Z,14.27
2023-01-29T22:00:28.624Z,13.60
2023-01-29T22:02:55.622Z,14.00
2023-01-29T22:05:22.531Z,15.00
2023-01-29T22:07:50.411Z,16.50
2023-01-29T22:10:19.250Z,17.07
2023-01-29T22:12:47.466Z,16.47
2023-01-29T22:15:15.642Z,15.37
2023-01-29T22:17:43.006Z,17.30
2023-01-29T22:20:12.703Z,16.40
2023-01-29T22:22:39.947Z,14.90
2023-01-29T22:25:07.899Z,18.50
2023-01-29T22:27:35.509Z,21.60
2023-01-29T22:30:02.590Z,25.33
2023-01-29T22:32:31.397Z,22.87
2023-01-29T22:34:58.468Z,20.83
2023-01-29T22:37:25.406Z,19.33
2023-01-29T22:39:52.856Z,19.03
2023-01-29T22:42:20.799Z,15.80
2023-01-29T22:44:48.535Z,14.07
2023-01-29T22:47:16.124Z,18.00
2023-01-29T22:49:45.475Z,16.67
2023-01-29T22:52:12.876Z,16.30
2023-01-29T22:54:43.014Z,16.57
2023-01-29T22:57:12.385Z,17.97
2023-01-29T22:59:39.618Z,17.93
2023-01-29T23:02:08.241Z,18.83
2023-01-29T23:04:35.699Z,18.33
2023-01-29T23:07:03.418Z,18.13
2023-01-29T23:09:30.475Z,20.83
2023-01-29T23:11:57.580Z,21.07
2023-01-29T23:14:24.934Z,20.40
2023-01-29T23:16:51.863Z,17.63
2023-01-29T23:19:19.106Z,18.00
2023-01-29T23:21:46.013Z,17.90
2023-01-29T23:24:13.438Z,18.57
2023-01-29T23:26:58.716Z,17.87
2023-01-29T23:29:26.046Z,17.80
2023-01-29T23:31:53.087Z,19.47
2023-01-29T23:34:20.499Z,17.17
2023-01-29T23:36:48.020Z,15.17
2023-01-29T23:39:15.496Z,10.90
2023-01-29T23:41:43.071Z,13.03
2023-01-29T23:44:10.327Z,14.37
2023-01-29T23:46:37.715Z,12.50
2023-01-29T23:49:06.398Z,13.80
2023-01-29T23:51:33.704Z,12.60
2023-01-29T23:54:01.020Z,12.00
2023-01-29T23:56:27.959Z,13.00
2023-01-29T23:58:56.848Z,12.77
